createdAt,value
2022-12-05T00:01:23.185Z,6.39
2022-12-05T00:03:54.511Z,6.13
2022-12-05T00:06:24.986Z,6.34
2022-12-05T00:08:53.185Z,6.41
2022-12-05T00:11:23.428Z,6.28
2022-12-05T00:13:53.073Z,6.36
2022-12-05T00:16:23.593Z,6.28
2022-12-05T00:18:51.791Z,6.41
2022-12-05T00:21:22.167Z,6.64
2022-12-05T00:23:52.722Z,6.64
2022-12-05T00:26:21.264Z,6.53
2022-12-05T00:28:49.361Z,6.53
2022-12-05T00:31:19.058Z,6.68
2022-12-05T00:33:48.214Z,6.60
2022-12-05T00:36:18.800Z,6.31
2022-12-05T00:38:46.773Z,6.71
2022-12-05T00:41:18.619Z,6.57
2022-12-05T00:43:46.633Z,6.84
2022-12-05T00:46:16.192Z,6.78
2022-12-05T00:48:44.161Z,6.92
2022-12-05T00:51:17.251Z,6.76
2022-12-05T00:53:45.787Z,6.75
2022-12-05T00:56:17.445Z,6.56
2022-12-05T00:58:45.932Z,6.63
2022-12-05T01:01:16.183Z,6.36
2022-12-05T01:03:45.868Z,6.68
2022-12-05T01:06:14.496Z,6.83
2022-12-05T01:08:42.581Z,6.50
2022-12-05T01:11:12.078Z,6.61
2022-12-05T01:13:41.333Z,6.68
2022-12-05T01:16:15.124Z,6.66
2022-12-05T01:18:43.207Z,6.56
2022-12-05T01:21:11.822Z,6.64
2022-12-05T01:23:39.701Z,6.78
2022-12-05T01:26:10.065Z,6.89
2022-12-05T01:28:38.606Z,6.58
2022-12-05T01:31:13.273Z,6.47
2022-12-05T01:33:41.154Z,6.42
2022-12-05T01:36:12.296Z,6.24
2022-12-05T01:38:40.886Z,6.19
2022-12-05T01:41:12.490Z,6.68
2022-12-05T01:43:55.666Z,6.22
2022-12-05T01:46:25.142Z,6.24
2022-12-05T01:48:54.815Z,6.06
2022-12-05T01:51:24.421Z,6.38
2022-12-05T01:53:52.759Z,6.34
2022-12-05T01:56:21.497Z,6.55
2022-12-05T01:58:50.244Z,6.58
2022-12-05T02:01:19.945Z,6.56
2022-12-05T02:03:53.435Z,6.61
2022-12-05T02:06:21.947Z,6.08
2022-12-05T02:08:50.850Z,6.34
2022-12-05T02:11:18.837Z,6.55
2022-12-05T02:14:05.085Z,5.95
2022-12-05T02:16:46.517Z,6.11
2022-12-05T02:19:59.348Z,6.49
2022-12-05T02:23:09.160Z,6.21
2022-12-05T02:25:58.145Z,5.64
2022-12-05T02:28:55.070Z,6.27
2022-12-05T02:31:35.070Z,6.05
2022-12-05T02:34:07.801Z,5.73
2022-12-05T02:36:41.955Z,5.72
2022-12-05T02:39:18.377Z,5.80
2022-12-05T02:41:51.839Z,5.90
2022-12-05T02:44:25.944Z,5.90
2022-12-05T02:46:56.627Z,5.61
2022-12-05T02:49:29.519Z,5.71
2022-12-05T02:52:01.115Z,5.88
2022-12-05T02:54:33.275Z,6.00
2022-12-05T02:57:02.106Z,6.22
2022-12-05T02:59:30.250Z,6.32
2022-12-05T03:01:59.466Z,6.22
2022-12-05T03:04:28.833Z,6.24
2022-12-05T03:07:00.367Z,6.11
2022-12-05T03:09:34.524Z,6.24
2022-12-05T03:12:11.834Z,6.14
2022-12-05T03:14:45.573Z,6.21
2022-12-05T03:17:21.952Z,6.55
2022-12-05T03:19:54.208Z,6.30
2022-12-05T03:22:28.793Z,6.31
2022-12-05T03:25:00.146Z,5.91
2022-12-05T03:27:33.919Z,6.52
2022-12-05T03:30:08.768Z,6.13
2022-12-05T03:32:45.502Z,6.61
2022-12-05T03:35:19.188Z,6.14
2022-12-05T03:37:52.956Z,6.24
2022-12-05T03:40:28.811Z,6.08
2022-12-05T03:43:06.101Z,6.15
2022-12-05T03:45:42.691Z,6.22
2022-12-05T03:48:20.200Z,5.84
2022-12-05T03:50:50.033Z,5.86
2022-12-05T03:53:22.159Z,6.52
2022-12-05T03:55:58.182Z,6.29
2022-12-05T03:58:32.578Z,6.13
2022-12-05T04:01:02.834Z,6.53
2022-12-05T04:03:40.330Z,6.09
2022-12-05T04:06:15.643Z,5.90
2022-12-05T04:08:48.668Z,6.19
2022-12-05T04:11:20.868Z,6.36
2022-12-05T04:13:51.499Z,6.03
2022-12-05T04:16:39.259Z,6.41
2022-12-05T04:19:16.394Z,6.11
2022-12-05T04:21:47.935Z,6.01
2022-12-05T04:24:39.347Z,6.01
2022-12-05T04:27:22.243Z,5.99
2022-12-05T04:30:01.312Z,6.09
2022-12-05T04:32:37.240Z,6.22
2022-12-05T04:35:12.712Z,6.34
2022-12-05T04:37:45.230Z,5.63
2022-12-05T04:40:20.317Z,5.86
2022-12-05T04:42:50.661Z,6.32
2022-12-05T04:45:21.226Z,6.04
2022-12-05T04:47:54.484Z,5.97
2022-12-05T04:50:25.280Z,6.16
2022-12-05T04:52:56.139Z,5.88
2022-12-05T04:55:28.021Z,5.89
2022-12-05T04:58:02.873Z,6.26
2022-12-05T05:00:33.043Z,6.08
2022-12-05T05:03:07.911Z,6.28
2022-12-05T05:05:39.543Z,6.10
2022-12-05T05:08:18.273Z,5.85
2022-12-05T05:10:56.346Z,6.07
2022-12-05T05:13:24.173Z,6.37
2022-12-05T05:15:52.152Z,6.36
2022-12-05T05:18:20.137Z,6.41
2022-12-05T05:20:49.381Z,6.22
2022-12-05T05:23:17.285Z,6.46
2022-12-05T05:25:45.152Z,5.96
2022-12-05T05:28:13.056Z,5.61
2022-12-05T05:30:40.910Z,5.99
2022-12-05T05:33:08.848Z,6.08
2022-12-05T05:35:37.686Z,6.07
2022-12-05T05:38:07.370Z,5.92
2022-12-05T05:40:37.464Z,6.05
2022-12-05T05:43:05.884Z,6.30
2022-12-05T05:45:33.725Z,5.99
2022-12-05T05:48:01.681Z,6.00
2022-12-05T05:50:29.666Z,5.64
2022-12-05T05:52:57.520Z,6.08
2022-12-05T05:55:26.706Z,5.64
2022-12-05T05:57:54.574Z,5.72
2022-12-05T06:00:22.871Z,5.74
2022-12-05T06:02:50.893Z,5.61
2022-12-05T06:05:18.877Z,6.13
2022-12-05T06:07:46.793Z,6.47
2022-12-05T06:10:14.755Z,5.95
2022-12-05T06:12:43.963Z,5.90
2022-12-05T06:15:12.507Z,6.34
2022-12-05T06:17:40.403Z,6.44
2022-12-05T06:20:09.563Z,6.30
2022-12-05T06:22:37.452Z,6.38
2022-12-05T06:25:05.923Z,5.42
2022-12-05T06:27:33.806Z,6.15
2022-12-05T06:30:03.092Z,5.82
2022-12-05T06:32:30.997Z,5.91
2022-12-05T06:34:58.993Z,6.07
2022-12-05T06:37:26.854Z,6.41
2022-12-05T06:39:54.704Z,5.93
2022-12-05T06:42:23.010Z,6.03
2022-12-05T06:44:50.914Z,6.24
2022-12-05T06:47:20.137Z,6.13
2022-12-05T06:49:48.037Z,6.07
2022-12-05T06:52:15.965Z,5.95
2022-12-05T06:54:43.906Z,6.05
2022-12-05T06:57:11.772Z,6.14
2022-12-05T06:59:39.745Z,6.14
2022-12-05T07:02:08.373Z,6.15
2022-12-05T07:04:37.828Z,6.64
2022-12-05T07:07:05.905Z,6.60
2022-12-05T07:09:48.195Z,6.46
2022-12-05T07:12:18.637Z,6.70
2022-12-05T07:14:49.022Z,6.76
2022-12-05T07:17:18.105Z,6.06
2022-12-05T07:19:49.178Z,6.28
2022-12-05T07:22:18.729Z,6.19
2022-12-05T07:24:47.536Z,6.04
2022-12-05T07:27:20.548Z,6.03
2022-12-05T07:29:52.101Z,6.10
2022-12-05T07:32:20.165Z,6.48
2022-12-05T07:34:54.758Z,6.42
2022-12-05T07:37:23.823Z,6.43
2022-12-05T07:39:53.031Z,6.35
2022-12-05T07:42:20.960Z,5.74
2022-12-05T07:44:48.909Z,5.87
2022-12-05T07:47:16.911Z,6.01
2022-12-05T07:49:44.819Z,6.01
2022-12-05T07:52:14.177Z,6.03
2022-12-05T07:54:42.295Z,6.38
2022-12-05T07:57:10.250Z,6.70
2022-12-05T07:59:38.273Z,6.08
2022-12-05T08:02:06.245Z,6.18
2022-12-05T08:04:34.277Z,6.56
2022-12-05T08:07:02.157Z,6.61
2022-12-05T08:09:31.639Z,6.10
2022-12-05T08:11:59.621Z,5.93
2022-12-05T08:14:27.519Z,5.88
2022-12-05T08:16:55.421Z,6.42
2022-12-05T08:19:23.449Z,6.10
2022-12-05T08:21:52.396Z,6.33
2022-12-05T08:24:20.313Z,6.48
2022-12-05T08:26:49.501Z,6.48
2022-12-05T08:29:21.290Z,6.34
2022-12-05T08:31:51.180Z,6.59
2022-12-05T08:34:21.049Z,6.55
2022-12-05T08:36:48.968Z,6.01
2022-12-05T08:39:18.814Z,6.61
2022-12-05T08:41:47.994Z,6.31
2022-12-05T08:44:18.622Z,6.19
2022-12-05T08:46:48.287Z,6.08
2022-12-05T08:49:16.923Z,6.42
2022-12-05T08:51:45.075Z,6.60
2022-12-05T08:54:13.011Z,6.52
2022-12-05T08:56:40.907Z,6.80
2022-12-05T08:59:09.122Z,6.34
2022-12-05T09:01:39.517Z,5.68
2022-12-05T09:04:08.937Z,6.08
2022-12-05T09:06:39.425Z,6.26
2022-12-05T09:09:11.587Z,5.92
2022-12-05T09:11:44.038Z,5.71
2022-12-05T09:14:11.982Z,6.05
2022-12-05T09:16:41.612Z,5.97
2022-12-05T09:19:14.441Z,5.91
2022-12-05T09:21:43.477Z,5.91
2022-12-05T09:24:12.703Z,5.61
2022-12-05T09:26:41.313Z,5.72
2022-12-05T09:29:15.733Z,6.06
2022-12-05T09:31:46.651Z,6.29
2022-12-05T09:34:15.320Z,6.31
2022-12-05T09:36:44.018Z,6.08
2022-12-05T09:39:12.436Z,6.10
2022-12-05T09:42:08.336Z,6.42
2022-12-05T09:44:58.428Z,6.14
2022-12-05T09:47:37.445Z,6.21
2022-12-05T09:50:15.478Z,6.51
2022-12-05T09:52:56.479Z,6.50
2022-12-05T09:55:24.417Z,6.30
2022-12-05T09:57:55.276Z,6.10
2022-12-05T10:00:23.342Z,6.32
2022-12-05T10:03:03.874Z,6.63
2022-12-05T10:05:41.361Z,6.28
2022-12-05T10:08:19.320Z,6.27
2022-12-05T10:11:01.221Z,6.27
2022-12-05T10:13:46.418Z,6.09
2022-12-05T10:16:19.125Z,6.24
2022-12-05T10:18:51.634Z,6.00
2022-12-05T10:21:23.447Z,5.87
2022-12-05T10:23:58.293Z,6.47
2022-12-05T10:26:30.782Z,6.47
2022-12-05T10:29:08.921Z,6.69
2022-12-05T10:31:39.487Z,6.63
2022-12-05T10:34:16.440Z,6.77
2022-12-05T10:36:52.173Z,6.40
2022-12-05T10:39:20.125Z,6.48
2022-12-05T10:41:48.086Z,6.28
2022-12-05T10:44:15.997Z,6.36
2022-12-05T10:46:43.943Z,6.30
2022-12-05T10:49:13.951Z,6.49
2022-12-05T10:51:42.452Z,6.34
2022-12-05T10:54:18.093Z,6.42
2022-12-05T10:56:47.637Z,6.37
2022-12-05T10:59:17.854Z,6.30
2022-12-05T11:01:49.606Z,6.32
2022-12-05T11:04:26.108Z,6.58
2022-12-05T11:06:57.650Z,6.62
2022-12-05T11:09:28.255Z,6.81
2022-12-05T11:12:07.368Z,6.86
2022-12-05T11:14:36.407Z,6.74
2022-12-05T11:17:06.806Z,6.72
2022-12-05T11:19:38.071Z,6.82
2022-12-05T11:22:08.004Z,7.01
2022-12-05T11:24:38.158Z,7.19
2022-12-05T11:27:22.156Z,7.05
2022-12-05T11:29:57.734Z,7.15
2022-12-05T11:32:27.338Z,6.41
2022-12-05T11:35:04.398Z,7.13
2022-12-05T11:37:38.421Z,7.41
2022-12-05T11:40:16.369Z,7.33
2022-12-05T11:43:02.865Z,7.23
2022-12-05T11:45:48.405Z,7.36
2022-12-05T11:48:37.789Z,7.33
2022-12-05T11:51:21.827Z,6.93
2022-12-05T11:54:30.640Z,7.36
2022-12-05T11:57:12.381Z,7.38
2022-12-05T12:00:05.344Z,6.85
2022-12-05T12:03:00.225Z,6.67
2022-12-05T12:05:37.135Z,6.95
2022-12-05T12:08:18.216Z,6.57
2022-12-05T12:10:56.183Z,6.66
2022-12-05T12:13:38.714Z,7.05
2022-12-05T12:16:15.593Z,7.41
2022-12-05T12:19:21.388Z,6.88
2022-12-05T12:22:05.516Z,7.10
2022-12-05T12:24:54.141Z,6.88
2022-12-05T12:27:35.677Z,7.26
2022-12-05T12:30:12.446Z,6.72
2022-12-05T12:32:56.161Z,6.96
2022-12-05T12:35:32.146Z,7.15
2022-12-05T12:38:14.536Z,6.86
2022-12-05T12:40:49.756Z,6.79
2022-12-05T12:43:53.184Z,7.40
2022-12-05T12:46:35.226Z,7.08
2022-12-05T12:49:21.689Z,6.87
2022-12-05T12:51:53.896Z,7.16
2022-12-05T12:55:02.909Z,7.43
2022-12-05T12:57:40.399Z,7.34
2022-12-05T13:00:21.352Z,7.17
2022-12-05T13:02:53.322Z,7.15
2022-12-05T13:05:27.992Z,6.96
2022-12-05T13:08:02.086Z,6.84
2022-12-05T13:10:34.830Z,6.65
2022-12-05T13:13:07.225Z,6.93
2022-12-05T13:15:41.052Z,6.98
2022-12-05T13:18:16.032Z,6.94
2022-12-05T13:20:45.502Z,7.17
2022-12-05T13:23:16.291Z,7.09
2022-12-05T13:25:45.976Z,6.81
2022-12-05T13:28:26.972Z,6.87
2022-12-05T13:31:01.325Z,7.24
2022-12-05T13:33:33.795Z,7.14
2022-12-05T13:36:26.620Z,7.38
2022-12-05T13:39:20.721Z,7.14
2022-12-05T13:42:09.031Z,7.06
2022-12-05T13:44:42.220Z,7.04
2022-12-05T13:47:25.966Z,6.85
2022-12-05T13:49:57.749Z,6.85
2022-12-05T13:52:31.113Z,7.00
2022-12-05T13:55:04.056Z,6.72
2022-12-05T13:57:53.283Z,7.39
2022-12-05T14:00:28.316Z,7.47
2022-12-05T14:03:03.264Z,7.52
2022-12-05T14:05:46.590Z,7.47
2022-12-05T14:08:56.058Z,7.51
2022-12-05T14:11:24.800Z,7.69
2022-12-05T14:14:00.747Z,7.72
2022-12-05T14:16:46.223Z,7.66
2022-12-05T14:19:54.114Z,7.83
2022-12-05T14:22:57.620Z,7.91
2022-12-05T14:25:58.345Z,7.78
2022-12-05T14:28:44.747Z,7.96
2022-12-05T14:31:29.870Z,7.83
2022-12-05T14:34:17.960Z,7.73
2022-12-05T14:36:58.809Z,7.71
2022-12-05T14:39:40.957Z,7.41
2022-12-05T14:42:23.865Z,7.70
2022-12-05T14:44:54.899Z,7.56
2022-12-05T14:47:26.973Z,7.76
2022-12-05T14:50:02.171Z,7.25
2022-12-05T14:52:34.031Z,7.53
2022-12-05T14:55:09.539Z,7.30
2022-12-05T14:57:46.401Z,7.54
2022-12-05T15:00:22.119Z,7.56
2022-12-05T15:02:52.896Z,7.87
2022-12-05T15:05:27.390Z,7.87
2022-12-05T15:07:58.581Z,7.95
2022-12-05T15:10:30.625Z,7.69
2022-12-05T15:13:01.453Z,7.84
2022-12-05T15:15:36.516Z,7.88
2022-12-05T15:18:15.851Z,7.97
2022-12-05T15:20:51.733Z,7.57
2022-12-05T15:23:42.303Z,7.61
2022-12-05T15:29:12.876Z,7.87
2022-12-05T15:31:47.221Z,7.78
2022-12-05T15:34:22.813Z,7.86
2022-12-05T15:36:58.599Z,7.84
2022-12-05T15:39:28.602Z,7.68
2022-12-05T15:41:58.183Z,7.50
2022-12-05T15:44:36.093Z,7.47
2022-12-05T15:47:05.543Z,7.62
2022-12-05T15:49:33.400Z,7.83
2022-12-05T15:52:24.301Z,7.81
2022-12-05T15:54:53.624Z,7.83
2022-12-05T15:57:26.940Z,7.57
2022-12-05T15:59:58.033Z,7.86
2022-12-05T16:02:35.478Z,7.77
2022-12-05T16:05:03.552Z,7.97
2022-12-05T16:07:33.233Z,8.02
2022-12-05T16:10:02.533Z,7.80
2022-12-05T16:12:36.721Z,7.76
2022-12-05T16:15:09.442Z,7.82
2022-12-05T16:17:43.283Z,7.84
2022-12-05T16:20:13.637Z,7.98
2022-12-05T16:22:48.393Z,7.91
2022-12-05T16:25:18.586Z,7.94
2022-12-05T16:27:57.917Z,8.07
2022-12-05T16:30:26.783Z,7.93
2022-12-05T16:33:04.717Z,7.97
2022-12-05T16:35:37.391Z,8.12
2022-12-05T16:38:11.295Z,8.02
2022-12-05T16:40:40.793Z,8.08
2022-12-05T16:43:20.323Z,8.18
2022-12-05T16:45:50.130Z,8.20
2022-12-05T16:48:25.931Z,7.79
2022-12-05T16:50:54.973Z,7.91
2022-12-05T16:53:30.851Z,7.75
2022-12-05T16:55:59.909Z,7.79
2022-12-05T16:58:30.888Z,7.78
2022-12-05T17:01:03.453Z,7.56
2022-12-05T17:03:35.661Z,7.77
2022-12-05T17:06:04.538Z,7.74
2022-12-05T17:08:33.877Z,7.92
2022-12-05T17:11:03.691Z,8.12
2022-12-05T17:13:32.688Z,7.79
2022-12-05T17:16:00.712Z,8.08
2022-12-05T17:18:31.780Z,7.98
2022-12-05T17:21:02.455Z,8.13
2022-12-05T17:23:30.336Z,8.16
2022-12-05T17:26:00.198Z,8.20
2022-12-05T17:28:28.095Z,8.31
2022-12-05T17:30:56.057Z,8.37
2022-12-05T17:33:24.210Z,8.44
2022-12-05T17:35:52.275Z,8.46
2022-12-05T17:38:20.867Z,8.29
2022-12-05T17:40:48.972Z,8.32
2022-12-05T17:43:24.539Z,8.40
2022-12-05T17:45:54.051Z,8.48
2022-12-05T17:48:22.497Z,8.36
2022-12-05T17:50:50.654Z,8.35
2022-12-05T17:53:20.619Z,8.44
2022-12-05T17:55:49.018Z,8.51
2022-12-05T17:58:18.871Z,8.46
2022-12-05T18:00:48.330Z,8.27
2022-12-05T18:03:18.697Z,8.28
2022-12-05T18:05:47.093Z,8.08
2022-12-05T18:08:16.984Z,8.35
2022-12-05T18:10:47.215Z,8.40
2022-12-05T18:13:15.669Z,8.37
2022-12-05T18:15:47.086Z,8.35
2022-12-05T18:18:17.085Z,8.36
2022-12-05T18:20:45.377Z,8.42
2022-12-05T18:23:13.362Z,8.49
2022-12-05T18:25:41.606Z,8.58
2022-12-05T18:28:09.461Z,8.46
2022-12-05T18:30:37.443Z,8.17
2022-12-05T18:33:06.744Z,8.37
2022-12-05T18:35:43.437Z,8.35
2022-12-05T18:38:12.264Z,8.14
2022-12-05T18:40:40.193Z,8.32
2022-12-05T18:43:08.061Z,8.28
2022-12-05T18:45:35.955Z,8.41
2022-12-05T18:48:23.346Z,8.42
2022-12-05T18:50:53.745Z,8.48
2022-12-05T18:53:21.976Z,8.42
2022-12-05T18:56:21.610Z,8.51
2022-12-05T18:58:38.790Z,8.42
2022-12-05T19:01:09.153Z,8.46
2022-12-05T19:03:38.627Z,8.25
2022-12-05T19:06:14.342Z,8.41
2022-12-05T19:08:42.741Z,8.17
2022-12-05T19:11:10.615Z,8.15
2022-12-05T19:13:38.557Z,8.42
2022-12-05T19:16:08.398Z,8.43
2022-12-05T19:18:36.638Z,8.24
2022-12-05T19:21:04.668Z,8.38
2022-12-05T19:23:35.794Z,8.42
2022-12-05T19:26:05.389Z,8.29
2022-12-05T19:28:33.511Z,8.49
2022-12-05T19:31:02.975Z,8.50
2022-12-05T19:33:34.578Z,8.43
2022-12-05T19:36:07.885Z,8.14
2022-12-05T19:38:37.078Z,8.33
2022-12-05T19:41:05.655Z,8.35
2022-12-05T19:43:35.007Z,8.29
2022-12-05T19:46:04.906Z,8.21
2022-12-05T19:48:33.959Z,8.15
2022-12-05T19:51:02.917Z,8.15
2022-12-05T19:53:33.270Z,8.13
2022-12-05T19:56:03.148Z,8.23
2022-12-05T19:58:32.828Z,8.24
2022-12-05T20:01:08.660Z,8.28
2022-12-05T20:03:36.571Z,8.25
2022-12-05T20:06:05.380Z,8.15
2022-12-05T20:08:33.453Z,8.17
2022-12-05T20:11:06.306Z,8.00
2022-12-05T20:13:46.604Z,8.08
2022-12-05T20:16:16.523Z,7.91
2022-12-05T20:18:44.461Z,8.06
2022-12-05T20:21:15.688Z,8.03
2022-12-05T20:23:43.552Z,8.06
2022-12-05T20:26:14.582Z,8.10
2022-12-05T20:28:42.721Z,7.84
2022-12-05T20:31:12.621Z,7.89
2022-12-05T20:33:41.532Z,7.94
2022-12-05T20:36:11.682Z,8.07
2022-12-05T20:38:39.936Z,8.07
2022-12-05T20:41:11.027Z,8.00
2022-12-05T20:43:40.274Z,7.68
2022-12-05T20:46:11.088Z,7.85
2022-12-05T20:48:39.100Z,7.92
2022-12-05T20:51:08.245Z,8.05
2022-12-05T20:53:37.343Z,7.98
2022-12-05T20:56:06.331Z,7.98
2022-12-05T20:58:34.439Z,7.93
2022-12-05T21:01:05.657Z,8.00
2022-12-05T21:03:33.952Z,8.01
2022-12-05T21:06:07.296Z,7.72
2022-12-05T21:08:35.178Z,7.76
2022-12-05T21:11:03.054Z,7.78
2022-12-05T21:13:30.932Z,7.81
2022-12-05T21:15:59.019Z,7.48
2022-12-05T21:18:29.778Z,7.50
2022-12-05T21:20:58.700Z,7.56
2022-12-05T21:23:27.018Z,7.67
2022-12-05T21:25:55.557Z,7.60
2022-12-05T21:28:23.400Z,7.70
2022-12-05T21:30:51.360Z,7.58
2022-12-05T21:33:20.557Z,7.53
2022-12-05T21:35:56.393Z,7.14
2022-12-05T21:38:24.324Z,7.52
2022-12-05T21:40:52.780Z,7.45
2022-12-05T21:43:20.607Z,7.52
2022-12-05T21:45:53.100Z,7.45
2022-12-05T21:48:21.957Z,7.59
2022-12-05T21:50:50.014Z,7.40
2022-12-05T21:53:23.303Z,7.35
2022-12-05T21:56:00.660Z,7.27
2022-12-05T21:58:28.918Z,7.01
2022-12-05T22:00:56.769Z,6.91
2022-12-05T22:03:25.108Z,7.10
2022-12-05T22:06:00.855Z,7.33
2022-12-05T22:08:34.539Z,7.21
2022-12-05T22:11:06.703Z,7.27
2022-12-05T22:13:35.203Z,7.04
2022-12-05T22:16:06.849Z,7.33
2022-12-05T22:18:35.274Z,7.43
2022-12-05T22:21:05.566Z,7.34
2022-12-05T22:23:36.129Z,7.38
2022-12-05T22:26:06.753Z,7.50
2022-12-05T22:28:36.060Z,7.53
2022-12-05T22:31:06.493Z,7.39
2022-12-05T22:33:35.748Z,7.46
2022-12-05T22:36:04.546Z,7.45
2022-12-05T22:38:39.311Z,7.46
2022-12-05T22:41:09.881Z,7.53
2022-12-05T22:43:40.602Z,7.07
2022-12-05T22:46:11.716Z,7.38
2022-12-05T22:48:39.815Z,7.41
2022-12-05T22:51:09.604Z,7.52
2022-12-05T22:53:39.607Z,7.37
2022-12-05T22:56:09.193Z,7.26
2022-12-05T22:58:37.510Z,7.22
2022-12-05T23:01:14.018Z,7.32
2022-12-05T23:03:42.635Z,7.35
2022-12-05T23:06:14.618Z,7.28
2022-12-05T23:08:45.733Z,7.30
2022-12-05T23:11:13.666Z,7.28
2022-12-05T23:13:41.589Z,7.29
2022-12-05T23:16:11.927Z,7.32
2022-12-05T23:18:47.612Z,7.34
2022-12-05T23:21:20.368Z,7.18
2022-12-05T23:23:51.617Z,7.15
2022-12-05T23:26:20.794Z,7.30
2022-12-05T23:28:48.728Z,7.28
2022-12-05T23:31:17.140Z,7.45
2022-12-05T23:33:45.038Z,7.30
2022-12-05T23:36:13.980Z,7.41
2022-12-05T23:38:43.878Z,7.25
2022-12-05T23:41:15.585Z,7.44
2022-12-05T23:43:44.474Z,7.38
2022-12-05T23:46:14.258Z,7.32
2022-12-05T23:48:42.209Z,6.94
2022-12-05T23:51:12.667Z,7.17
2022-12-05T23:53:42.187Z,7.25
2022-12-05T23:56:11.535Z,7.13
2022-12-05T23:58:41.106Z,7.46
